Time;durP1;ratioP1;P1;durP2;ratioP2;P2;SDS_P1;SDS_P2;PMS_P1;PMS_P2;Temp;Humidity;BMP_temperature;BMP_pressure;BME280_temperature;BME280_humidity;BME280_pressure;Samples;Min_cycle;Max_cycle;Signal;HPM_P1;HPM_P2
2022/07/16 04:22:43;;;;;;;8.85;6.00;;;;;;;11.19;92.94;100746.84;5109135;27;20365;-65
2022/07/16 04:25:09;;;;;;;8.98;6.05;;;;;;;11.28;93.46;100749.34;5109160;28;20438;-65
2022/07/16 04:27:34;;;;;;;7.82;5.43;;;;;;;11.31;93.52;100750.84;5109594;28;20043;-65
2022/07/16 04:29:59;;;;;;;9.68;6.22;;;;;;;11.43;92.77;100759.38;5109173;28;20062;-65
2022/07/16 04:32:25;;;;;;;9.23;5.82;;;;;;;11.47;93.06;100758.84;5109542;28;20417;-65
2022/07/16 04:34:50;;;;;;;10.93;5.85;;;;;;;11.50;92.43;100755.84;5109249;28;20031;-65
2022/07/16 04:37:16;;;;;;;7.90;5.45;;;;;;;11.56;92.21;100751.69;5109146;28;20032;-65
2022/07/16 04:39:41;;;;;;;12.30;6.28;;;;;;;11.61;91.83;100749.38;5108863;28;20031;-65
2022/07/16 04:42:06;;;;;;;8.93;5.90;;;;;;;11.62;91.85;100762.53;5109394;28;20404;-65
2022/07/16 04:44:32;;;;;;;10.70;5.82;;;;;;;11.67;92.58;100760.19;5107856;28;20115;-65
2022/07/16 04:46:57;;;;;;;7.68;5.57;;;;;;;11.70;93.06;100761.69;5108999;28;20385;-65
2022/07/16 04:49:23;;;;;;;9.65;6.65;;;;;;;11.78;93.42;100763.50;5108607;28;20036;-65
2022/07/16 04:51:48;;;;;;;10.75;6.03;;;;;;;11.85;92.66;100761.84;5108777;28;20028;-65
2022/07/16 04:54:13;;;;;;;7.38;5.38;;;;;;;11.91;92.69;100759.34;5108889;28;20507;-65
2022/07/16 04:56:39;;;;;;;10.38;6.47;;;;;;;11.97;92.17;100760.50;5108717;28;20065;-65
2022/07/16 04:59:04;;;;;;;9.40;5.65;;;;;;;12.08;92.00;100762.00;5108380;28;20043;-65
2022/07/16 05:01:30;;;;;;;8.00;5.97;;;;;;;12.18;91.82;100759.97;5108622;28;20109;-65
2022/07/16 05:03:55;;;;;;;10.85;5.80;;;;;;;12.30;92.04;100763.09;5108639;28;20039;-65
2022/07/16 05:06:21;;;;;;;9.50;5.68;;;;;;;12.38;92.03;100763.06;5108704;28;20511;-65
2022/07/16 05:08:46;;;;;;;10.40;6.80;;;;;;;12.47;92.26;100762.06;5108221;28;20032;-65
2022/07/16 05:11:11;;;;;;;15.80;5.55;;;;;;;12.57;92.84;100765.34;5108534;28;20502;-65
2022/07/16 05:13:37;;;;;;;11.43;7.00;;;;;;;12.69;92.34;100768.47;5108578;28;20028;-65
2022/07/16 05:16:03;;;;;;;10.50;6.68;;;;;;;12.76;87.48;100764.91;5108408;28;20400;-65
2022/07/16 05:18:29;;;;;;;8.93;6.18;;;;;;;12.93;83.73;100770.19;5108354;28;20035;-65
2022/07/16 05:20:54;;;;;;;11.05;5.05;;;;;;;13.16;82.12;100764.84;5106574;28;20097;-65
2022/07/16 05:23:19;;;;;;;6.63;4.72;;;;;;;13.27;81.68;100761.81;5108350;28;20112;-65
2022/07/16 05:25:45;;;;;;;10.93;6.80;;;;;;;13.39;82.69;100764.91;5108170;28;20051;-65
2022/07/16 05:28:10;;;;;;;11.65;6.95;;;;;;;13.44;82.56;100755.31;5108173;28;20028;-65
2022/07/16 05:30:36;;;;;;;9.48;4.70;;;;;;;13.51;82.04;100758.13;5107866;28;20136;-66
2022/07/16 05:33:01;;;;;;;10.00;7.63;;;;;;;13.57;84.41;100768.09;5100466;28;20089;-66
2022/07/16 05:35:27;;;;;;;12.48;6.10;;;;;;;13.62;85.09;100763.00;5094508;28;20040;-66
2022/07/16 05:37:52;;;;;;;8.27;4.85;;;;;;;13.69;84.04;100772.00;5094475;28;20405;-65
2022/07/16 05:40:18;;;;;;;9.93;5.20;;;;;;;13.76;82.83;100778.31;5094103;28;20048;-65
2022/07/16 05:42:43;;;;;;;9.77;5.70;;;;;;;13.86;83.69;100780.72;5094393;28;20127;-65
2022/07/16 05:45:09;;;;;;;7.60;4.68;;;;;;;13.93;82.68;100783.50;5094170;28;20048;-65
2022/07/16 05:47:36;;;;;;;12.73;5.57;;;;;;;14.01;81.55;100781.56;5094249;28;20040;-65
2022/07/16 05:50:02;;;;;;;7.93;5.15;;;;;;;14.11;79.08;100781.31;5093924;28;20091;-65
2022/07/16 05:52:28;;;;;;;7.20;4.65;;;;;;;14.25;78.38;100783.16;5094203;28;20081;-65
2022/07/16 05:54:53;;;;;;;9.85;4.40;;;;;;;14.32;77.88;100784.09;5094186;28;20044;-65
2022/07/16 05:57:18;;;;;;;10.48;5.05;;;;;;;14.42;78.07;100791.03;5093967;28;20032;-65
2022/07/16 05:59:44;;;;;;;7.63;4.90;;;;;;;14.49;77.76;100783.94;5092456;28;20178;-65
2022/07/16 06:02:09;;;;;;;8.02;3.92;;;;;;;14.63;76.02;100791.16;5093808;28;20373;-65
2022/07/16 06:04:35;;;;;;;8.43;4.53;;;;;;;14.79;75.10;100795.47;5094006;28;20066;-65
2022/07/16 06:07:00;;;;;;;6.30;3.80;;;;;;;14.85;74.49;100790.19;5093926;28;20111;-65
2022/07/16 06:09:26;;;;;;;7.07;3.88;;;;;;;14.96;74.25;100798.78;5092315;28;20064;-66
2022/07/16 06:11:51;;;;;;;10.45;5.10;;;;;;;15.12;73.90;100787.78;5092517;28;20426;-66
2022/07/16 06:14:17;;;;;;;11.38;4.00;;;;;;;15.26;72.17;100796.81;5093970;28;20036;-65
2022/07/16 06:16:42;;;;;;;7.53;3.58;;;;;;;15.39;71.17;100803.19;5093848;28;20099;-66
2022/07/16 06:19:08;;;;;;;7.22;4.03;;;;;;;15.58;70.00;100796.31;5093796;28;20070;-65
2022/07/16 06:21:34;;;;;;;6.47;3.88;;;;;;;15.66;68.14;100798.91;5093409;28;20069;-65
2022/07/16 06:23:59;;;;;;;7.22;3.78;;;;;;;15.76;66.89;100801.25;5093619;28;20060;-65
2022/07/16 06:26:25;;;;;;;6.57;3.20;;;;;;;15.85;66.22;100797.44;5093551;28;20164;-66
2022/07/16 06:28:50;;;;;;;6.35;3.60;;;;;;;15.93;66.38;100805.34;5093274;28;20050;-66
2022/07/16 06:31:16;;;;;;;8.25;3.65;;;;;;;16.13;64.02;100808.19;5093366;28;20036;-65
2022/07/16 06:33:41;;;;;;;6.18;3.90;;;;;;;16.21;62.85;100801.81;5093404;28;20077;-66
2022/07/16 06:36:07;;;;;;;5.05;3.25;;;;;;;16.40;59.70;100806.50;5093275;28;20044;-66
2022/07/16 06:38:32;;;;;;;5.90;3.35;;;;;;;16.41;61.83;100808.16;5093295;28;20042;-65
2022/07/16 06:40:58;;;;;;;5.05;3.17;;;;;;;16.47;62.27;100801.97;5093078;28;20036;-65
2022/07/16 06:43:23;;;;;;;5.95;2.92;;;;;;;16.64;62.65;100805.19;5093191;28;20390;-66
2022/07/16 06:45:48;;;;;;;5.35;3.50;;;;;;;16.75;62.12;100807.31;5073989;28;20046;-66
2022/07/16 06:48:14;;;;;;;4.80;3.20;;;;;;;16.87;60.21;100818.34;5093215;28;20209;-66
2022/07/16 06:50:39;;;;;;;5.32;3.05;;;;;;;16.96;59.23;100811.78;5093110;28;20043;-66
2022/07/16 06:53:06;;;;;;;8.45;3.33;;;;;;;17.06;58.32;100809.50;5092996;28;20036;-66
2022/07/16 06:55:31;;;;;;;6.07;2.75;;;;;;;17.18;57.72;100808.94;5092946;28;20040;-66
2022/07/16 06:57:57;;;;;;;4.82;2.90;;;;;;;17.29;58.24;100808.34;5092714;28;20043;-65
2022/07/16 07:00:22;;;;;;;5.57;2.80;;;;;;;17.40;56.65;100806.91;5092413;28;20036;-65
2022/07/16 07:02:48;;;;;;;3.00;2.47;;;;;;;17.53;55.76;100810.44;5092901;28;20097;-65
2022/07/16 07:05:13;;;;;;;7.15;2.75;;;;;;;17.59;56.34;100814.19;5092703;28;20044;-65
2022/07/16 07:07:39;;;;;;;5.95;2.70;;;;;;;17.76;54.17;100806.59;5092584;28;20036;-65
2022/07/16 07:10:05;;;;;;;4.60;2.88;;;;;;;17.85;54.78;100810.72;5092290;28;20126;-65
2022/07/16 07:12:30;;;;;;;4.85;2.90;;;;;;;18.01;52.87;100818.41;5071222;28;20028;-64
2022/07/16 07:14:56;;;;;;;5.03;2.85;;;;;;;18.08;53.65;100816.53;5071674;28;20406;-46
2022/07/16 07:17:21;;;;;;;8.98;2.63;;;;;;;18.29;52.05;100820.03;5071973;28;20036;-48
2022/07/16 07:19:47;;;;;;;4.75;2.25;;;;;;;18.36;50.34;100824.38;5071202;28;20071;-50
2022/07/16 07:22:12;;;;;;;7.47;2.75;;;;;;;18.41;50.88;100827.25;5071890;28;20406;-48
2022/07/16 07:24:37;;;;;;;3.65;2.45;;;;;;;18.51;51.71;100821.41;5072092;28;20131;-48
2022/07/16 07:27:03;;;;;;;3.92;2.30;;;;;;;18.69;49.64;100827.00;5071572;28;20135;-48
2022/07/16 07:29:28;;;;;;;5.10;2.72;;;;;;;18.78;49.21;100826.75;5071107;28;20032;-50
2022/07/16 07:31:54;;;;;;;3.78;2.78;;;;;;;18.92;49.77;100828.41;5071534;28;20548;-54
2022/07/16 07:34:19;;;;;;;4.70;2.80;;;;;;;19.10;48.70;100825.81;5071894;28;20036;-48
2022/07/16 07:36:44;;;;;;;5.13;2.75;;;;;;;19.16;48.64;100824.13;5071757;28;20044;-49
2022/07/16 07:39:10;;;;;;;3.88;2.50;;;;;;;19.30;49.68;100819.47;5070993;28;20033;-55
2022/07/16 07:41:37;;;;;;;6.05;2.70;;;;;;;19.42;47.70;100818.56;5070995;28;20037;-51
2022/07/16 07:44:02;;;;;;;3.90;2.40;;;;;;;19.56;47.65;100826.56;5071648;28;20101;-51
2022/07/16 07:46:28;;;;;;;5.45;2.83;;;;;;;19.63;46.80;100820.13;5071443;28;20405;-51
2022/07/16 07:48:53;;;;;;;5.20;2.63;;;;;;;19.78;46.86;100817.94;5071174;28;20033;-51
2022/07/16 07:51:19;;;;;;;3.67;2.35;;;;;;;19.87;45.48;100820.34;5071232;28;20040;-51
2022/07/16 07:53:44;;;;;;;4.88;2.47;;;;;;;19.98;45.31;100819.66;5071659;28;20041;-54
2022/07/16 07:56:10;;;;;;;4.60;2.65;;;;;;;20.08;46.27;100819.13;5070851;28;20036;-48
2022/07/16 07:58:37;;;;;;;3.90;2.38;;;;;;;20.19;45.71;100815.72;5070718;28;20032;-49
2022/07/16 08:01:03;;;;;;;5.93;2.33;;;;;;;20.32;45.04;100819.13;5071215;28;20041;-47
2022/07/16 08:03:29;;;;;;;3.88;2.22;;;;;;;20.44;46.61;100819.19;5071596;28;20045;-49
2022/07/16 08:05:54;;;;;;;4.97;2.30;;;;;;;20.64;45.12;100816.31;5071344;28;20042;-49
2022/07/16 08:08:20;;;;;;;4.10;2.40;;;;;;;20.70;44.76;100804.59;5071246;28;20032;-49
2022/07/16 08:10:45;;;;;;;3.22;2.10;;;;;;;20.84;44.65;100814.19;5070657;28;20400;-47
2022/07/16 08:13:11;;;;;;;5.28;1.88;;;;;;;20.80;42.01;100814.88;5071028;28;20131;-47
2022/07/16 08:15:36;;;;;;;4.63;1.77;;;;;;;20.91;43.70;100806.00;5071460;28;20386;-46
2022/07/16 08:18:02;;;;;;;3.05;2.03;;;;;;;20.96;43.95;100802.59;5071015;28;20040;-49
2022/07/16 08:20:27;;;;;;;3.60;2.35;;;;;;;21.04;44.66;100813.94;5069110;28;20481;-49
2022/07/16 08:22:53;;;;;;;5.43;2.08;;;;;;;21.23;43.07;100809.31;5071277;28;20051;-46
2022/07/16 08:28:02;;;;;;;2.65;1.70;;;;;;;21.48;42.12;100811.09;5070857;28;20040;-46
2022/07/16 08:30:28;;;;;;;2.75;1.95;;;;;;;21.49;41.24;100801.91;5070618;28;20051;-50
2022/07/16 08:32:54;;;;;;;6.03;1.67;;;;;;;21.65;41.96;100803.94;5071046;28;20060;-46
2022/07/16 08:35:20;;;;;;;2.47;1.90;;;;;;;21.68;41.56;100796.16;5071254;28;20028;-44
2022/07/16 08:37:47;;;;;;;5.85;1.73;;;;;;;21.84;39.72;100816.34;5070937;28;20059;-51
2022/07/16 08:40:19;;;;;;;4.60;2.20;;;;;;;21.95;40.75;100810.09;5070700;28;20481;-46
2022/07/16 08:42:45;;;;;;;4.35;1.77;;;;;;;22.10;39.58;100816.97;5070646;28;20036;-49
2022/07/16 08:45:12;;;;;;;3.72;1.50;;;;;;;22.14;40.41;100810.03;5059186;28;20036;-50
2022/07/16 08:47:38;;;;;;;6.30;1.70;;;;;;;22.27;40.35;100808.97;5051176;28;20099;-46
2022/07/16 08:50:09;;;;;;;1.85;1.40;;;;;;;22.36;41.51;100807.53;5050667;28;20056;-47
2022/07/16 08:52:39;;;;;;;3.47;1.63;;;;;;;22.58;40.90;100802.34;5051035;28;20041;-50
2022/07/16 08:55:06;;;;;;;3.83;1.80;;;;;;;22.62;37.92;100807.03;5050992;28;20562;-50
2022/07/16 08:57:32;;;;;;;2.28;1.38;;;;;;;22.60;37.99;100805.63;5050581;28;20470;-51
2022/07/16 08:59:58;;;;;;;2.08;1.30;;;;;;;22.71;38.08;100804.78;5050579;28;20512;-51
2022/07/16 09:02:23;;;;;;;6.40;1.70;;;;;;;22.82;38.28;100812.09;5051372;28;20029;-51
2022/07/16 09:04:49;;;;;;;13.43;2.00;;;;;;;23.08;40.16;100815.31;5051053;28;20033;-53
2022/07/16 09:07:16;;;;;;;4.90;1.50;;;;;;;22.94;37.39;100809.34;5051081;28;20048;-47
2022/07/16 09:09:44;;;;;;;3.05;1.88;;;;;;;23.12;39.12;100811.88;5054121;28;20508;-45
2022/07/16 09:12:11;;;;;;;3.20;1.73;;;;;;;23.15;37.71;100813.31;5063871;28;20048;-45
2022/07/16 09:14:36;;;;;;;2.60;1.33;;;;;;;23.37;40.32;100797.13;5075077;28;20068;-45
2022/07/16 09:17:02;;;;;;;3.63;1.40;;;;;;;23.51;36.88;100812.03;5074752;28;20302;-47
2022/07/16 09:19:29;;;;;;;2.17;1.50;;;;;;;23.74;36.84;100802.97;5074067;28;20040;-51
2022/07/16 09:21:59;;;;;;;3.15;1.35;;;;;;;23.78;36.10;100809.53;5074581;28;20401;-46
2022/07/16 09:24:44;;;;;;;3.03;1.30;;;;;;;24.09;37.97;100808.97;5074527;28;20040;-46
2022/07/16 09:27:13;;;;;;;4.30;1.65;;;;;;;24.13;36.98;100805.75;5074110;28;20025;-49
2022/07/16 09:29:48;;;;;;;1.83;1.48;;;;;;;24.32;35.87;100810.66;5073869;28;20524;-47
2022/07/16 09:32:26;;;;;;;4.50;1.88;;;;;;;23.99;36.32;100783.47;5074258;28;20076;-48
2022/07/16 09:35:05;;;;;;;5.05;1.50;;;;;;;24.44;36.14;100807.03;5074363;28;20501;-47
2022/07/16 09:37:53;;;;;;;2.83;1.95;;;;;;;24.42;35.76;100798.28;5074162;28;20032;-49
2022/07/16 09:40:35;;;;;;;3.85;2.10;;;;;;;24.39;36.47;100809.66;5076769;28;20667;-68
2022/07/16 09:43:03;;;;;;;2.65;1.40;;;;;;;24.78;34.90;100797.69;5093308;28;20051;-67
2022/07/16 09:45:28;;;;;;;3.00;1.60;;;;;;;25.06;35.26;100806.75;5093228;28;20040;-67
2022/07/16 09:47:54;;;;;;;2.38;1.25;;;;;;;25.05;36.45;100805.94;5094386;28;20074;-66
2022/07/16 09:50:20;;;;;;;4.35;1.85;;;;;;;24.72;34.51;100803.31;5094009;28;20070;-67
2022/07/16 09:52:45;;;;;;;2.65;1.52;;;;;;;25.24;35.85;100806.41;5094277;28;20036;-67
2022/07/16 09:55:11;;;;;;;2.88;1.40;;;;;;;25.49;34.88;100808.53;5094323;28;20115;-67
2022/07/16 09:57:36;;;;;;;2.17;1.92;;;;;;;25.60;34.63;100806.75;5094098;28;20115;-67
2022/07/16 10:00:07;;;;;;;2.45;1.30;;;;;;;25.65;34.09;100807.59;5094182;28;20036;-66
2022/07/16 10:02:38;;;;;;;2.03;1.42;;;;;;;25.57;33.52;100799.09;5094101;28;20097;-66
2022/07/16 10:05:04;;;;;;;3.10;1.42;;;;;;;25.83;33.08;100808.34;5093981;28;20484;-66
2022/07/16 10:07:30;;;;;;;3.45;1.60;;;;;;;26.11;33.44;100808.00;5092655;28;20040;-51
2022/07/16 10:09:57;;;;;;;3.88;1.40;;;;;;;26.10;33.28;100809.09;5093660;28;20036;-66
2022/07/16 10:12:23;;;;;;;3.10;1.45;;;;;;;26.41;31.82;100810.13;5093824;28;20493;-67
2022/07/16 10:14:52;;;;;;;5.63;1.40;;;;;;;26.64;31.51;100813.50;5093912;28;20028;-66
2022/07/16 10:17:20;;;;;;;1.85;1.30;;;;;;;26.69;32.15;100808.06;5093780;28;20473;-66
2022/07/16 10:19:56;;;;;;;2.10;1.40;;;;;;;26.88;30.42;100802.97;5093401;28;20028;-66
2022/07/16 10:22:27;;;;;;;3.40;1.40;;;;;;;26.41;30.48;100801.13;5093667;28;20081;-66
2022/07/16 10:24:55;;;;;;;4.07;1.52;;;;;;;27.15;30.89;100809.09;5093896;28;20393;-66
2022/07/16 10:27:32;;;;;;;2.72;1.40;;;;;;;27.64;29.72;100807.75;5093586;28;20032;-66
2022/07/16 10:30:16;;;;;;;;;;;;;;;28.14;30.89;100801.47;5093820;28;20534;-66
2022/07/16 10:33:00;;;;;;;6.00;1.30;;;;;;;28.43;28.45;100798.13;5093541;28;20010;-66
2022/07/16 10:35:30;;;;;;;3.92;0.98;;;;;;;28.76;26.92;100797.50;5093504;28;20032;-66
2022/07/16 10:38:14;;;;;;;2.17;1.00;;;;;;;28.86;25.98;100800.16;5093300;28;20036;-64
2022/07/16 10:40:42;;;;;;;1.90;0.90;;;;;;;28.89;24.11;100793.31;5111799;22;20050;-60
2022/07/16 10:43:21;;;;;;;1.30;0.90;;;;;;;29.25;24.17;100795.88;5072693;28;20509;-59
2022/07/16 10:45:51;;;;;;;1.90;0.88;;;;;;;29.31;23.72;100792.00;5073039;28;20063;-61
2022/07/16 10:48:17;;;;;;;1.55;0.95;;;;;;;29.38;24.54;100798.78;5072740;28;20108;-59
2022/07/16 10:51:08;;;;;;;2.25;1.13;;;;;;;29.35;25.94;100791.16;5077696;28;20044;-60
2022/07/16 10:54:01;;;;;;;2.22;1.20;;;;;;;29.71;25.26;100796.38;5092817;28;20036;-61
2022/07/16 10:56:38;;;;;;;1.42;1.08;;;;;;;29.52;25.61;100801.72;5092802;28;20040;-59
2022/07/16 10:59:11;;;;;;;1.25;1.02;;;;;;;29.51;25.15;100805.59;5092460;28;20068;-59
2022/07/16 11:01:39;;;;;;;1.17;0.88;;;;;;;29.70;25.88;100797.47;5092598;28;20020;-61
2022/07/16 11:04:05;;;;;;;3.05;1.10;;;;;;;29.41;24.00;100792.75;5092635;28;20039;-60
2022/07/16 11:06:32;;;;;;;1.25;0.90;;;;;;;29.76;25.40;100796.34;5092638;28;20040;-60
2022/07/16 11:09:03;;;;;;;1.70;0.82;;;;;;;30.12;24.94;100791.34;5092249;28;20400;-56
2022/07/16 11:11:36;;;;;;;1.60;0.90;;;;;;;30.12;25.88;100796.81;5092252;28;20032;-57
2022/07/16 11:14:02;;;;;;;3.03;1.10;;;;;;;30.44;25.25;100798.13;5092369;28;20032;-56
2022/07/16 11:16:28;;;;;;;1.20;1.10;;;;;;;30.39;24.55;100793.53;5092405;28;20031;-58
2022/07/16 11:18:55;;;;;;;2.65;1.00;;;;;;;30.69;24.67;100799.78;5092030;28;20408;-59
2022/07/16 11:21:21;;;;;;;0.80;0.80;;;;;;;30.78;24.16;100787.88;5092170;28;20051;-61
2022/07/16 11:23:54;;;;;;;2.83;1.20;;;;;;;30.74;23.70;100797.00;5091047;28;20039;-58
2022/07/16 11:26:21;;;;;;;1.98;1.13;;;;;;;30.53;24.20;100791.72;5092267;28;20054;-58
2022/07/16 11:28:51;;;;;;;3.33;1.33;;;;;;;30.77;25.29;100793.63;5091847;28;20028;-59
2022/07/16 11:31:26;;;;;;;2.22;0.90;;;;;;;30.73;24.38;100792.59;5091391;28;20032;-59
2022/07/16 11:33:54;;;;;;;2.35;1.13;;;;;;;31.05;23.84;100797.41;5107672;28;20039;-61
2022/07/16 11:36:20;;;;;;;1.83;1.23;;;;;;;31.64;23.42;100800.66;5092054;28;20076;-59
2022/07/16 11:38:46;;;;;;;1.25;0.93;;;;;;;31.08;22.92;100797.59;5091703;28;20035;-61
2022/07/16 11:41:12;;;;;;;1.43;0.90;;;;;;;30.91;24.58;100810.22;5091777;28;20036;-61
2022/07/16 11:43:37;;;;;;;1.40;1.00;;;;;;;31.31;24.69;100800.63;5092016;28;20081;-60
2022/07/16 11:46:03;;;;;;;1.97;1.10;;;;;;;31.27;25.04;100805.91;5091823;28;20129;-60
2022/07/16 11:48:37;;;;;;;4.63;1.83;;;;;;;31.88;24.08;100796.66;5091792;28;20473;-61
2022/07/16 11:51:09;;;;;;;2.10;1.02;;;;;;;31.98;24.69;100801.19;5089626;28;20047;-61
2022/07/16 11:53:37;;;;;;;1.55;1.05;;;;;;;32.19;23.43;100795.28;5090893;28;20485;-60
2022/07/16 11:56:05;;;;;;;3.03;1.10;;;;;;;32.64;22.78;100810.13;5091668;28;20415;-61
2022/07/16 11:58:30;;;;;;;3.42;1.67;;;;;;;32.50;22.52;100806.56;5092173;28;20369;-59
2022/07/16 12:00:56;;;;;;;5.27;1.73;;;;;;;32.54;22.78;100804.81;5087880;28;20028;-61
2022/07/16 12:03:21;;;;;;;1.60;1.50;;;;;;;32.01;23.11;100797.81;5080770;28;20031;-60
2022/07/16 12:05:47;;;;;;;4.20;1.40;;;;;;;31.76;24.50;100801.00;5082155;28;20070;-61
2022/07/16 12:08:13;;;;;;;2.15;1.30;;;;;;;31.94;23.89;100793.81;5080107;28;20397;-57
2022/07/16 12:10:39;;;;;;;2.17;1.20;;;;;;;31.74;23.71;100801.28;5080769;28;20078;-58
2022/07/16 12:13:09;;;;;;;2.37;1.67;;;;;;;32.30;23.29;100792.03;5080597;28;20064;-59
2022/07/16 12:15:58;;;;;;;3.40;1.38;;;;;;;32.38;22.36;100788.59;5087427;28;20067;-59
2022/07/16 12:18:24;;;;;;;2.15;0.93;;;;;;;32.45;23.21;100801.16;5081539;28;20043;-59
2022/07/16 12:20:51;;;;;;;2.17;1.33;;;;;;;33.02;22.17;100801.63;5083779;28;20040;-59
2022/07/16 12:23:39;;;;;;;1.75;1.10;;;;;;;33.24;22.41;100800.84;5091223;28;20048;-60
2022/07/16 12:26:05;;;;;;;3.08;1.15;;;;;;;32.78;21.38;100797.16;5091308;28;20046;-59
2022/07/16 12:28:31;;;;;;;2.50;1.27;;;;;;;32.58;23.04;100803.91;5089825;28;20031;-60
2022/07/16 12:31:15;;;;;;;2.42;1.15;;;;;;;33.12;21.96;100793.91;5090866;28;20036;-60
2022/07/16 12:33:51;;;;;;;2.80;2.30;;;;;;;33.08;22.27;100795.69;5091264;28;20040;-60
2022/07/16 12:36:18;;;;;;;2.03;1.60;;;;;;;32.63;20.93;100792.78;5091239;28;20149;-60
2022/07/16 12:38:55;;;;;;;4.20;2.35;;;;;;;32.78;22.83;100796.31;5090829;28;20051;-58
2022/07/16 12:41:31;;;;;;;1.88;1.40;;;;;;;33.14;23.84;100802.72;5090814;28;20046;-60
2022/07/16 12:44:00;;;;;;;2.85;1.20;;;;;;;33.46;22.03;100801.72;5094175;28;20366;-60
2022/07/16 12:46:34;;;;;;;2.38;1.13;;;;;;;33.68;21.96;100806.41;5095248;28;20032;-60
2022/07/16 12:49:03;;;;;;;4.93;1.13;;;;;;;33.61;22.14;100805.22;5094455;28;20516;-60
2022/07/16 12:51:36;;;;;;;1.75;1.20;;;;;;;33.77;21.30;100800.13;5082061;28;20428;-60
2022/07/16 12:54:03;;;;;;;2.67;1.50;;;;;;;34.26;20.61;100801.88;5083774;28;20125;-59
2022/07/16 12:59:14;;;;;;;2.42;1.55;;;;;;;34.07;20.44;100796.59;5083825;28;19912;-59
2022/07/16 13:01:40;;;;;;;4.38;1.50;;;;;;;33.91;21.27;100800.91;5083839;28;20024;-60
2022/07/16 13:04:06;;;;;;;16.48;3.50;;;;;;;33.97;23.07;100794.94;5084007;28;20031;-55
2022/07/16 13:06:33;;;;;;;4.38;1.30;;;;;;;34.15;22.26;100790.28;5083745;28;20455;-60
2022/07/16 13:08:58;;;;;;;;;;;;;;;34.34;21.05;100787.28;5084277;28;20038;-60
2022/07/16 13:11:25;;;;;;;2.63;0.80;;;;;;;33.36;22.56;100782.59;5083743;28;20089;-59
2022/07/16 13:13:50;;;;;;;;;;;;;;;33.78;22.49;100799.84;5082534;28;20029;-59
2022/07/16 13:16:17;;;;;;;1.90;1.23;;;;;;;33.42;21.39;100786.09;5084204;28;19942;-60
2022/07/16 13:18:43;;;;;;;1.65;1.13;;;;;;;33.09;22.98;100788.22;5084612;28;20055;-59
2022/07/16 13:21:09;;;;;;;1.30;0.88;;;;;;;33.58;23.12;100787.34;5078113;28;20028;-60
2022/07/16 13:23:35;;;;;;;1.30;1.10;;;;;;;32.88;24.09;100785.13;5082583;28;20496;-58
2022/07/16 13:26:02;;;;;;;2.30;1.20;;;;;;;32.90;23.55;100774.56;5066048;28;20059;-61
2022/07/16 13:28:27;;;;;;;;;;;;;;;32.31;23.89;100779.06;5083706;28;20036;-60
2022/07/16 13:30:53;;;;;;;4.25;1.23;;;;;;;32.18;23.31;100783.44;5084496;28;19977;-60
2022/07/16 13:33:18;;;;;;;2.53;1.60;;;;;;;31.83;24.17;100793.19;5086167;28;20032;-57
2022/07/16 13:35:44;;;;;;;1.40;1.03;;;;;;;31.31;25.36;100781.38;5094239;28;20036;-59
2022/07/16 13:38:10;;;;;;;2.83;1.60;;;;;;;30.75;27.34;100771.13;5094255;28;20048;-59
2022/07/16 13:40:35;;;;;;;2.53;1.17;;;;;;;30.42;26.66;100778.38;5093574;28;20093;-60
2022/07/16 13:43:01;;;;;;;3.47;1.60;;;;;;;30.47;26.15;100778.31;5094072;28;20035;-60
2022/07/16 13:45:27;;;;;;;2.08;1.33;;;;;;;30.35;26.89;100778.72;5094072;28;20043;-59
2022/07/16 13:47:53;;;;;;;3.40;1.20;;;;;;;30.24;27.64;100774.47;5093957;28;20039;-58
2022/07/16 13:50:19;;;;;;;2.05;1.20;;;;;;;29.77;27.36;100775.19;5093758;28;20587;-60
2022/07/16 13:52:45;;;;;;;3.42;1.52;;;;;;;29.39;27.07;100773.00;5093923;28;20036;-59
2022/07/16 13:55:10;;;;;;;1.63;1.02;;;;;;;29.38;26.98;100782.31;5093593;28;20477;-60
2022/07/16 14:00:23;;;;;;;2.72;1.40;;;;;;;29.01;26.96;100769.13;5093396;28;20039;-60
2022/07/16 14:02:48;;;;;;;2.22;1.48;;;;;;;28.76;27.65;100770.09;5093659;28;20050;-59
2022/07/16 14:05:14;;;;;;;2.53;1.77;;;;;;;28.75;28.36;100770.34;5093596;28;20036;-59
2022/07/16 14:07:39;;;;;;;7.45;4.80;;;;;;;28.83;28.69;100773.31;5093739;28;20039;-60
2022/07/16 14:10:06;;;;;;;3.45;1.42;;;;;;;28.51;27.74;100768.25;5093219;28;20032;-57
2022/07/16 14:12:31;;;;;;;3.90;1.98;;;;;;;28.59;28.24;100773.16;5093392;28;20493;-58
2022/07/16 14:14:57;;;;;;;4.13;1.65;;;;;;;28.39;27.73;100771.31;5093450;28;20032;-57
2022/07/16 14:17:22;;;;;;;2.33;1.48;;;;;;;28.37;28.10;100770.78;5093524;28;20122;-57
2022/07/16 14:19:48;;;;;;;1.88;1.10;;;;;;;28.43;28.83;100768.00;5094094;28;20038;-59
2022/07/16 14:22:13;;;;;;;2.83;1.55;;;;;;;28.12;28.34;100776.28;5093484;28;20132;-58
2022/07/16 14:24:39;;;;;;;3.22;1.48;;;;;;;28.24;28.66;100765.88;5092034;28;20028;-58
2022/07/16 14:27:04;;;;;;;2.38;1.40;;;;;;;27.69;28.23;100769.50;5093278;28;20503;-59
2022/07/16 14:29:30;;;;;;;4.32;1.38;;;;;;;28.04;29.78;100771.41;5092956;28;20097;-60
2022/07/16 14:31:55;;;;;;;4.18;2.08;;;;;;;28.14;28.96;100768.63;5092764;28;20043;-60
2022/07/16 14:34:21;;;;;;;2.30;1.23;;;;;;;27.80;28.92;100769.22;5092502;28;20113;-59
2022/07/16 14:36:46;;;;;;;1.63;1.20;;;;;;;27.83;28.89;100765.91;5092956;28;20054;-58
2022/07/16 14:39:12;;;;;;;2.92;1.50;;;;;;;28.05;29.59;100768.38;5092777;28;20108;-58
2022/07/16 14:41:37;;;;;;;3.08;1.60;;;;;;;27.91;29.07;100760.97;5092785;28;20040;-60
2022/07/16 14:44:03;;;;;;;2.40;1.20;;;;;;;27.87;28.93;100768.94;5084115;28;20039;-60
2022/07/16 14:46:28;;;;;;;1.80;1.33;;;;;;;27.84;28.26;100773.06;5072631;28;20070;-60
2022/07/16 14:48:54;;;;;;;2.20;1.50;;;;;;;27.81;28.51;100765.38;5072162;28;20059;-59
2022/07/16 14:51:19;;;;;;;1.65;1.40;;;;;;;27.84;29.90;100762.13;5072574;28;20127;-60
2022/07/16 14:53:45;;;;;;;4.20;1.58;;;;;;;27.92;29.74;100766.22;5072506;28;20083;-61
2022/07/16 14:56:10;;;;;;;2.45;1.60;;;;;;;27.87;28.56;100757.19;5072558;28;20090;-61
2022/07/16 14:58:35;;;;;;;2.35;1.60;;;;;;;27.93;29.21;100761.56;5072158;28;20464;-59
2022/07/16 15:01:01;;;;;;;3.97;1.30;;;;;;;27.91;29.21;100766.47;5072421;28;20127;-61
2022/07/16 15:03:26;;;;;;;3.42;1.80;;;;;;;27.76;29.47;100767.31;5072381;28;20040;-59
2022/07/16 15:05:52;;;;;;;1.98;1.50;;;;;;;27.61;29.29;100764.56;5071656;28;20041;-60
2022/07/16 15:08:17;;;;;;;1.90;1.40;;;;;;;27.76;30.51;100759.91;5072267;28;20444;-58
2022/07/16 15:10:43;;;;;;;4.60;1.80;;;;;;;27.72;29.85;100764.31;5072065;28;20499;-60
2022/07/16 15:13:08;;;;;;;3.42;1.35;;;;;;;27.78;30.49;100756.91;5072150;28;20036;-63
2022/07/16 15:15:35;;;;;;;2.10;1.42;;;;;;;27.63;30.04;100749.50;5072434;28;20115;-63
2022/07/16 15:18:00;;;;;;;2.78;1.73;;;;;;;27.39;29.31;100760.19;5070725;28;20466;-63
2022/07/16 15:20:26;;;;;;;1.58;1.35;;;;;;;27.24;29.64;100769.16;5071837;28;20059;-61
2022/07/16 15:22:52;;;;;;;1.88;1.40;;;;;;;27.13;29.34;100755.78;5071929;28;20124;-63
2022/07/16 15:25:17;;;;;;;2.25;1.50;;;;;;;27.15;29.55;100764.50;5071847;28;20040;-64
2022/07/16 15:27:43;;;;;;;1.95;1.40;;;;;;;27.21;29.61;100756.06;5071752;28;20074;-63
2022/07/16 15:30:11;;;;;;;1.60;1.20;;;;;;;27.25;29.67;100762.59;5071614;28;20032;-63
2022/07/16 15:32:38;;;;;;;1.83;1.25;;;;;;;27.24;30.58;100752.75;5072379;28;20090;-63
2022/07/16 15:35:04;;;;;;;3.15;1.67;;;;;;;27.26;30.46;100750.59;5071826;28;20036;-67
2022/07/16 15:37:30;;;;;;;2.67;1.70;;;;;;;27.12;29.38;100757.66;5071823;28;20040;-63
2022/07/16 15:39:55;;;;;;;2.45;1.75;;;;;;;27.14;29.82;100760.16;5071332;28;20455;-64
2022/07/16 15:42:21;;;;;;;2.33;1.33;;;;;;;26.90;29.38;100746.13;5071212;28;20045;-51
2022/07/16 15:44:47;;;;;;;2.88;1.90;;;;;;;26.90;29.67;100751.56;5071684;28;20037;-54
2022/07/16 15:47:12;;;;;;;1.90;1.45;;;;;;;26.91;30.23;100747.75;5070344;28;20062;-53
2022/07/16 15:49:38;;;;;;;2.72;1.63;;;;;;;26.98;30.29;100751.88;5071196;28;20040;-52
2022/07/16 15:52:04;;;;;;;2.25;1.80;;;;;;;27.04;30.29;100750.78;5070185;28;20039;-49
2022/07/16 15:54:30;;;;;;;2.30;1.80;;;;;;;27.12;31.17;100757.66;5071446;28;20444;-53
2022/07/16 15:56:56;;;;;;;3.72;1.73;;;;;;;26.99;30.07;100745.28;5071385;28;20032;-52